Time;durP1;ratioP1;P1;durP2;ratioP2;P2;SDS_P1;SDS_P2;PMS_P1;PMS_P2;Temp;Humidity;BMP_temperature;BMP_pressure;BME280_temperature;BME280_humidity;BME280_pressure;Samples;Min_cycle;Max_cycle;Signal;HPM_P1;HPM_P2
2024/03/10 00:01:56;;;;;;;9.33;5.37;;;9.70;68.80;;;;;;4993558;28;20481;-69
2024/03/10 00:04:22;;;;;;;10.57;6.00;;;9.60;69.10;;;;;;5009201;28;20265;-70
2024/03/10 00:06:47;;;;;;;9.70;6.13;;;9.50;68.80;;;;;;5009967;28;21266;-71
2024/03/10 00:09:13;;;;;;;8.50;5.27;;;9.70;69.10;;;;;;5008618;28;20532;-70
2024/03/10 00:11:42;;;;;;;9.97;5.97;;;9.70;68.60;;;;;;5006350;28;20232;-72
2024/03/10 00:14:07;;;;;;;11.57;5.23;;;9.60;68.80;;;;;;5009509;28;20205;-71
2024/03/10 00:16:33;;;;;;;12.87;6.57;;;9.60;69.10;;;;;;5009004;28;20754;-71
2024/03/10 00:19:00;;;;;;;9.20;5.57;;;9.60;69.10;;;;;;5009719;28;20308;-71
2024/03/10 00:21:25;;;;;;;9.47;5.30;;;9.60;69.10;;;;;;5005561;28;20448;-72
2024/03/10 00:23:51;;;;;;;6.73;5.03;;;9.50;69.10;;;;;;5008429;28;20424;-71
2024/03/10 00:26:17;;;;;;;8.53;4.00;;;9.40;69.10;;;;;;5006428;28;20182;-71
2024/03/10 00:28:43;;;;;;;6.20;4.30;;;9.40;69.10;;;;;;5011446;28;20197;-69
2024/03/10 00:31:09;;;;;;;9.73;5.20;;;9.30;69.10;;;;;;5005533;28;20224;-71
2024/03/10 00:33:38;;;;;;;10.27;5.00;;;9.40;69.20;;;;;;5008337;28;20437;-70
2024/03/10 00:36:07;;;;;;;7.40;4.00;;;9.50;69.10;;;;;;5006389;28;20479;-69
2024/03/10 00:38:33;;;;;;;7.90;4.67;;;9.50;69.10;;;;;;5008717;28;20504;-68
2024/03/10 00:40:59;;;;;;;7.70;4.20;;;9.60;68.80;;;;;;5004752;28;20480;-70
2024/03/10 00:43:24;;;;;;;6.97;3.90;;;9.50;68.80;;;;;;5006621;28;20174;-70
2024/03/10 00:45:50;;;;;;;7.57;4.23;;;9.50;68.80;;;;;;5007831;28;20186;-70
2024/03/10 00:48:19;;;;;;;11.30;4.60;;;9.50;69.10;;;;;;5008668;28;20197;-69
2024/03/10 00:50:48;;;;;;;9.67;7.03;;;9.50;69.10;;;;;;5004112;28;20248;-69
2024/03/10 00:53:14;;;;;;;8.33;4.90;;;9.50;68.60;;;;;;5007617;28;20425;-69
2024/03/10 00:55:42;;;;;;;9.30;5.73;;;9.50;68.80;;;;;;5008540;28;20432;-69
2024/03/10 00:58:08;;;;;;;8.60;5.33;;;9.60;68.60;;;;;;5008227;28;20530;-71
2024/03/10 01:00:34;;;;;;;7.43;4.87;;;9.50;68.60;;;;;;5005920;28;20425;-70
2024/03/10 01:03:01;;;;;;;7.80;4.80;;;9.40;68.80;;;;;;5007054;28;20590;-68
2024/03/10 01:05:26;;;;;;;7.30;4.00;;;9.30;68.60;;;;;;5011399;28;20184;-70
2024/03/10 01:07:52;;;;;;;7.80;4.23;;;9.30;68.90;;;;;;5009053;28;20440;-71
2024/03/10 01:10:18;;;;;;;6.17;3.30;;;9.30;69.20;;;;;;5005451;28;20197;-70
2024/03/10 01:12:43;;;;;;;5.80;3.80;;;9.30;68.90;;;;;;5001153;28;20678;-69
2024/03/10 01:15:10;;;;;;;9.50;5.13;;;9.40;68.90;;;;;;5007242;28;20194;-69
2024/03/10 01:17:35;;;;;;;8.10;4.80;;;9.40;68.80;;;;;;5008273;28;20205;-70
2024/03/10 01:20:02;;;;;;;8.73;4.00;;;9.50;68.60;;;;;;5008039;28;20468;-69
2024/03/10 01:22:27;;;;;;;5.70;3.60;;;9.50;68.30;;;;;;5004306;28;20209;-68
2024/03/10 01:24:54;;;;;;;8.33;4.53;;;9.50;68.60;;;;;;5007563;28;20437;-71
2024/03/10 01:27:21;;;;;;;8.63;4.70;;;9.40;68.60;;;;;;5006963;28;20201;-71
2024/03/10 01:29:47;;;;;;;8.57;4.60;;;9.40;68.80;;;;;;5007296;28;20420;-69
2024/03/10 01:32:12;;;;;;;9.77;4.63;;;9.50;68.60;;;;;;5004017;28;20460;-69
2024/03/10 01:34:38;;;;;;;10.10;5.33;;;9.60;68.50;;;;;;5007511;28;20189;-71
2024/03/10 01:37:03;;;;;;;5.63;4.07;;;9.70;68.30;;;;;;5007576;28;20247;-69
2024/03/10 01:39:29;;;;;;;9.90;5.07;;;9.60;68.50;;;;;;5006379;28;20675;-70
2024/03/10 01:41:57;;;;;;;8.40;4.80;;;9.60;68.50;;;;;;4991016;28;20702;-69
2024/03/10 01:44:23;;;;;;;8.10;4.50;;;9.60;68.60;;;;;;5006706;28;20680;-69
2024/03/10 01:46:50;;;;;;;8.67;4.30;;;9.50;68.80;;;;;;5007688;28;20436;-69
2024/03/10 01:49:16;;;;;;;5.90;3.97;;;9.50;69.10;;;;;;5006681;28;20432;-70
2024/03/10 01:51:42;;;;;;;7.13;4.60;;;9.50;69.10;;;;;;5003654;28;20456;-67
2024/03/10 01:54:11;;;;;;;10.73;5.20;;;9.40;68.90;;;;;;5007472;28;20801;-70
2024/03/10 01:56:38;;;;;;;8.67;5.20;;;9.50;68.90;;;;;;5007076;28;21331;-72
2024/03/10 01:59:06;;;;;;;11.00;5.47;;;9.40;68.90;;;;;;5006796;28;20546;-69
2024/03/10 02:01:33;;;;;;;8.03;5.27;;;9.30;69.10;;;;;;5001193;28;20541;-70
2024/03/10 02:03:59;;;;;;;7.80;4.67;;;9.20;69.20;;;;;;5008069;28;20417;-70
2024/03/10 02:06:25;;;;;;;7.33;4.57;;;9.20;69.20;;;;;;5008066;28;20425;-70
2024/03/10 02:08:51;;;;;;;8.10;4.80;;;9.30;69.40;;;;;;5007099;28;20425;-69
2024/03/10 02:11:20;;;;;;;10.30;4.97;;;9.40;69.20;;;;;;5005622;28;20456;-69
2024/03/10 02:13:45;;;;;;;8.70;4.80;;;9.50;69.20;;;;;;5008019;28;20457;-70
2024/03/10 02:16:11;;;;;;;9.93;6.60;;;9.40;69.20;;;;;;5007967;28;20996;-70
2024/03/10 02:18:38;;;;;;;6.27;4.20;;;9.50;69.20;;;;;;5012188;28;20222;-71
2024/03/10 02:21:04;;;;;;;6.07;4.20;;;9.40;69.20;;;;;;5010370;28;20305;-68
2024/03/10 02:23:49;;;;;;;7.53;4.60;;;9.40;69.40;;;;;;5008775;28;20420;-69
2024/03/10 02:26:15;;;;;;;7.70;4.63;;;9.50;69.40;;;;;;4994197;28;20569;-70
2024/03/10 02:28:57;;;;;;;8.70;4.80;;;9.40;69.40;;;;;;5012565;28;20433;-68
2024/03/10 02:47:51;;;;;;;8.77;4.83;;;9.30;69.80;;;;;;5012136;28;20471;-69
2024/03/10 02:50:16;;;;;;;5.70;4.20;;;9.30;69.80;;;;;;5011637;28;20566;-70
2024/03/10 02:52:42;;;;;;;6.53;4.90;;;9.30;69.70;;;;;;5009722;28;20468;-70
2024/03/10 02:55:08;;;;;;;12.23;4.90;;;9.20;69.70;;;;;;5012520;28;20527;-69
2024/03/10 02:57:34;;;;;;;12.47;5.33;;;9.20;69.80;;;;;;5012459;28;20622;-69
2024/03/10 03:00:00;;;;;;;8.17;4.83;;;9.00;69.90;;;;;;5007654;28;20551;-69
2024/03/10 03:02:26;;;;;;;7.77;4.50;;;9.00;69.90;;;;;;5009439;28;20205;-71
2024/03/10 03:04:52;;;;;;;8.53;4.40;;;9.00;70.10;;;;;;5011596;28;20436;-70
2024/03/10 03:07:18;;;;;;;7.23;4.70;;;9.10;69.90;;;;;;5011778;28;20425;-71
2024/03/10 03:09:45;;;;;;;8.60;4.40;;;9.10;69.80;;;;;;5011756;28;20240;-70
2024/03/10 03:12:11;;;;;;;7.40;4.77;;;9.10;69.90;;;;;;5009597;28;20218;-71
2024/03/10 03:14:36;;;;;;;9.00;4.47;;;9.00;69.90;;;;;;5012852;28;20427;-70
2024/03/10 03:17:03;;;;;;;6.70;4.37;;;9.00;70.10;;;;;;5011726;28;20865;-70
2024/03/10 03:19:29;;;;;;;8.00;4.87;;;9.00;69.90;;;;;;5011313;28;20289;-71
2024/03/10 03:21:54;;;;;;;8.93;4.70;;;8.90;70.10;;;;;;5009298;28;20619;-70
2024/03/10 03:24:20;;;;;;;7.97;4.50;;;8.80;70.10;;;;;;5011668;28;20566;-71
2024/03/10 03:26:46;;;;;;;9.13;4.37;;;8.70;70.10;;;;;;4993905;28;20186;-71
2024/03/10 03:29:13;;;;;;;8.17;4.60;;;8.70;70.20;;;;;;5011357;28;20190;-70
2024/03/10 03:31:38;;;;;;;9.27;5.37;;;8.70;70.10;;;;;;5009889;28;20474;-70
2024/03/10 03:34:04;;;;;;;5.93;4.33;;;8.60;70.20;;;;;;5011347;28;20424;-68
2024/03/10 03:36:31;;;;;;;7.37;4.40;;;8.50;70.40;;;;;;5008705;28;20193;-70
2024/03/10 03:38:58;;;;;;;9.00;4.70;;;8.40;70.50;;;;;;5011181;28;20267;-69
2024/03/10 03:41:24;;;;;;;6.17;4.30;;;8.40;70.50;;;;;;5009098;28;20556;-69
2024/03/10 03:43:50;;;;;;;9.53;5.07;;;8.30;70.70;;;;;;5011016;28;20511;-72
2024/03/10 03:46:16;;;;;;;7.70;4.60;;;8.40;70.80;;;;;;5010940;28;20656;-68
2024/03/10 03:48:41;;;;;;;6.43;4.10;;;8.40;70.80;;;;;;5010864;28;20937;-68
2024/03/10 03:51:07;;;;;;;9.37;4.87;;;8.30;70.70;;;;;;5008040;28;20543;-70
2024/03/10 03:53:32;;;;;;;7.97;5.00;;;8.30;70.80;;;;;;5011113;28;20192;-69
2024/03/10 03:55:58;;;;;;;11.87;5.77;;;8.50;70.40;;;;;;5011555;28;20653;-71
2024/03/10 03:58:23;;;;;;;10.03;5.20;;;8.50;70.40;;;;;;5010665;28;20217;-68
2024/03/10 04:00:49;;;;;;;8.50;4.67;;;8.50;70.50;;;;;;5009714;28;20270;-71
2024/03/10 04:03:15;;;;;;;10.13;4.80;;;8.40;71.10;;;;;;5010821;28;20190;-69
2024/03/10 04:05:40;;;;;;;7.97;3.90;;;8.50;71.10;;;;;;5011660;28;20193;-71
2024/03/10 04:08:06;;;;;;;8.73;5.03;;;8.50;71.00;;;;;;5011166;28;20281;-70
2024/03/10 04:10:35;;;;;;;9.00;5.20;;;8.50;71.00;;;;;;5008811;28;20432;-70
2024/03/10 04:13:02;;;;;;;7.80;4.60;;;8.50;71.00;;;;;;5009674;28;20814;-70
2024/03/10 04:15:28;;;;;;;7.50;5.53;;;8.40;71.10;;;;;;5009787;28;20425;-71
2024/03/10 04:17:53;;;;;;;8.20;5.23;;;8.40;71.10;;;;;;5011402;28;20472;-69
2024/03/10 04:20:19;;;;;;;7.33;3.83;;;8.40;71.10;;;;;;5010281;28;20920;-71
2024/03/10 04:22:48;;;;;;;8.40;4.50;;;8.40;71.10;;;;;;5004817;28;20189;-70
2024/03/10 04:25:14;;;;;;;8.93;4.80;;;8.20;71.10;;;;;;5010622;28;20181;-69
2024/03/10 04:27:40;;;;;;;7.60;4.40;;;8.20;71.30;;;;;;5011034;28;20909;-70
2024/03/10 04:30:06;;;;;;;6.80;4.37;;;8.10;71.30;;;;;;5010499;28;20491;-68
2024/03/10 04:32:32;;;;;;;7.93;4.80;;;8.10;71.60;;;;;;5007656;28;20464;-68
2024/03/10 04:34:57;;;;;;;8.73;4.00;;;8.10;71.30;;;;;;5010302;28;20436;-70
2024/03/10 04:37:27;;;;;;;8.07;4.67;;;8.10;71.30;;;;;;5011512;28;20373;-69
2024/03/10 04:39:53;;;;;;;10.93;4.77;;;8.00;71.60;;;;;;5009679;28;20632;-70
2024/03/10 04:42:19;;;;;;;7.40;4.57;;;8.00;72.00;;;;;;5008025;28;20499;-70
2024/03/10 04:44:44;;;;;;;7.43;4.00;;;7.90;72.10;;;;;;5010214;28;20437;-70
2024/03/10 04:47:12;;;;;;;7.70;4.70;;;7.90;72.40;;;;;;5010594;28;20663;-69
2024/03/10 04:49:39;;;;;;;6.47;4.03;;;7.90;72.40;;;;;;5010197;28;20205;-69
2024/03/10 04:52:08;;;;;;;7.07;4.20;;;7.90;72.30;;;;;;5007013;28;20471;-72
2024/03/10 04:54:34;;;;;;;9.77;5.17;;;7.90;71.80;;;;;;5009570;28;20954;-71
2024/03/10 04:57:00;;;;;;;8.70;3.93;;;7.90;71.70;;;;;;5010234;28;20431;-70
2024/03/10 04:59:25;;;;;;;5.90;3.90;;;7.80;71.30;;;;;;5009167;28;20480;-70
2024/03/10 05:01:53;;;;;;;8.73;4.10;;;7.80;71.60;;;;;;5007031;28;20241;-69
2024/03/10 05:04:19;;;;;;;6.50;3.53;;;7.80;71.10;;;;;;5009610;28;20197;-68
2024/03/10 05:06:45;;;;;;;7.70;4.10;;;7.80;71.00;;;;;;5010158;28;20502;-69
2024/03/10 05:09:11;;;;;;;9.23;5.43;;;7.90;71.40;;;;;;5009476;28;20969;-70
2024/03/10 05:11:36;;;;;;;8.90;5.20;;;8.00;71.80;;;;;;5007121;28;20599;-68
2024/03/10 05:14:02;;;;;;;10.00;6.47;;;7.90;72.40;;;;;;5012365;28;20197;-69
2024/03/10 05:16:27;;;;;;;9.17;6.27;;;7.70;73.30;;;;;;5010138;28;20231;-69
2024/03/10 05:18:56;;;;;;;15.17;7.33;;;7.60;74.00;;;;;;5009810;28;20275;-68
2024/03/10 05:21:25;;;;;;;11.23;6.53;;;7.50;74.30;;;;;;5006694;28;20205;-69
2024/03/10 05:23:51;;;;;;;9.33;5.70;;;7.50;74.20;;;;;;5008978;28;21008;-69
2024/03/10 05:26:17;;;;;;;8.53;5.60;;;7.50;74.50;;;;;;5009809;28;20524;-69
2024/03/10 05:28:42;;;;;;;8.67;5.40;;;7.40;74.50;;;;;;5009213;28;20494;-67
2024/03/10 05:31:26;;;;;;;12.47;6.60;;;7.50;74.60;;;;;;5006802;28;20225;-68
2024/03/10 05:33:51;;;;;;;11.83;5.10;;;7.50;74.60;;;;;;4993207;28;20696;-68
2024/03/10 05:36:17;;;;;;;8.50;4.97;;;7.60;73.90;;;;;;5009944;28;20413;-69
2024/03/10 05:38:42;;;;;;;6.07;4.17;;;7.60;73.50;;;;;;5008374;28;20296;-67
2024/03/10 05:41:09;;;;;;;7.90;4.03;;;7.40;72.60;;;;;;5008322;28;20584;-69
2024/03/10 05:43:34;;;;;;;5.53;3.90;;;7.40;72.30;;;;;;5009399;28;20654;-70
2024/03/10 05:46:00;;;;;;;15.00;6.87;;;7.60;72.10;;;;;;5009978;28;20424;-71
2024/03/10 05:48:26;;;;;;;13.50;6.83;;;7.60;72.30;;;;;;5009422;28;20201;-70
2024/03/10 05:50:52;;;;;;;7.60;4.83;;;7.70;72.40;;;;;;5008777;28;20826;-69
2024/03/10 05:53:18;;;;;;;8.03;5.33;;;7.50;72.60;;;;;;5013683;28;20503;-69
2024/03/10 05:55:43;;;;;;;7.50;5.13;;;7.50;72.90;;;;;;5013126;28;20178;-70
2024/03/10 05:58:12;;;;;;;6.70;4.97;;;7.60;73.30;;;;;;5012709;28;20284;-69
2024/03/10 06:00:38;;;;;;;11.10;6.40;;;7.60;73.00;;;;;;5010797;28;20204;-70
2024/03/10 06:03:04;;;;;;;10.27;6.20;;;7.70;73.50;;;;;;5012900;28;20508;-71
2024/03/10 06:05:30;;;;;;;8.47;5.30;;;7.60;73.20;;;;;;5013352;28;20409;-71
2024/03/10 06:07:56;;;;;;;6.70;4.30;;;7.50;73.50;;;;;;5014857;28;20729;-70
2024/03/10 06:10:21;;;;;;;17.37;4.57;;;7.50;73.70;;;;;;5014171;28;20499;-70
2024/03/10 06:12:47;;;;;;;8.43;4.57;;;7.50;73.70;;;;;;5010079;28;20194;-68
2024/03/10 06:15:16;;;;;;;5.57;3.37;;;7.40;73.00;;;;;;5012869;28;20240;-71
2024/03/10 06:17:50;;;;;;;6.33;3.73;;;7.30;72.90;;;;;;5007615;28;20182;-70
2024/03/10 06:25:45;;;;;;;4.50;2.80;;;7.40;72.10;;;;;;5013924;28;20423;-70
2024/03/10 06:28:10;;;;;;;6.23;3.90;;;7.40;71.60;;;;;;5012362;28;20433;-69
2024/03/10 06:30:36;;;;;;;15.90;3.40;;;7.40;71.60;;;;;;5010325;28;20189;-69
2024/03/10 06:33:01;;;;;;;6.33;3.50;;;7.50;71.40;;;;;;4996555;28;20560;-69
2024/03/10 06:35:28;;;;;;;4.83;3.67;;;7.50;71.10;;;;;;5012223;28;20706;-69
2024/03/10 06:37:56;;;;;;;7.50;4.10;;;7.40;71.00;;;;;;5012292;28;20185;-69
2024/03/10 06:40:21;;;;;;;6.70;4.00;;;7.60;71.60;;;;;;5012217;28;20951;-68
2024/03/10 06:42:47;;;;;;;5.63;3.30;;;7.70;71.60;;;;;;5009733;28;20452;-70
2024/03/10 06:45:15;;;;;;;5.30;3.40;;;7.70;71.60;;;;;;5012198;28;20712;-69
2024/03/10 06:47:42;;;;;;;7.13;3.70;;;7.80;71.40;;;;;;5012575;28;20189;-70
2024/03/10 06:50:09;;;;;;;6.53;4.20;;;7.80;71.40;;;;;;5012303;28;20823;-69
2024/03/10 06:52:35;;;;;;;13.23;5.57;;;7.90;71.10;;;;;;5008793;28;20209;-71
2024/03/10 06:55:03;;;;;;;9.20;4.60;;;8.10;71.40;;;;;;5011891;28;20428;-71
2024/03/10 06:57:28;;;;;;;6.83;4.40;;;8.00;71.10;;;;;;5012075;28;20471;-69
2024/03/10 06:59:54;;;;;;;10.87;5.80;;;8.00;70.40;;;;;;5012140;28;21016;-69
2024/03/10 07:02:22;;;;;;;8.57;4.70;;;7.90;71.40;;;;;;5008363;28;20285;-69
2024/03/10 07:04:48;;;;;;;8.20;5.03;;;7.90;71.80;;;;;;5012158;28;20588;-70
2024/03/10 07:07:14;;;;;;;11.10;5.70;;;7.90;72.10;;;;;;5012310;28;20507;-71
2024/03/10 07:09:41;;;;;;;9.87;5.50;;;8.00;72.60;;;;;;5012060;28;20413;-69
2024/03/10 07:12:07;;;;;;;8.97;5.20;;;8.00;72.40;;;;;;5009132;28;20460;-69
2024/03/10 07:14:33;;;;;;;8.10;4.60;;;7.90;72.40;;;;;;5012157;28;20433;-69
2024/03/10 07:16:59;;;;;;;5.30;4.00;;;7.90;72.70;;;;;;5012354;28;20186;-71
2024/03/10 07:19:24;;;;;;;5.87;3.67;;;7.90;72.60;;;;;;5011385;28;20468;-69
2024/03/10 07:21:51;;;;;;;7.83;3.90;;;7.90;72.40;;;;;;5009123;28;20205;-69
2024/03/10 07:24:16;;;;;;;4.43;3.23;;;8.00;71.40;;;;;;5012340;28;20710;-69
2024/03/10 07:26:42;;;;;;;7.37;3.90;;;8.10;71.30;;;;;;5012901;28;20441;-70
2024/03/10 07:29:07;;;;;;;7.17;3.30;;;8.10;71.00;;;;;;4996140;28;20183;-71
2024/03/10 07:31:33;;;;;;;4.83;3.57;;;8.10;70.80;;;;;;5008724;28;20293;-69
2024/03/10 07:33:59;;;;;;;4.90;3.70;;;8.20;70.70;;;;;;5011536;28;20193;-69
2024/03/10 07:36:26;;;;;;;7.87;4.30;;;8.30;70.50;;;;;;5012399;28;20182;-69
2024/03/10 07:38:56;;;;;;;8.17;4.90;;;8.40;70.20;;;;;;5011955;28;20304;-68
2024/03/10 07:41:21;;;;;;;7.20;4.40;;;8.50;69.90;;;;;;5008653;28;20452;-69
2024/03/10 07:43:47;;;;;;;8.90;5.40;;;8.60;69.10;;;;;;5011588;28;20500;-70
2024/03/10 07:46:13;;;;;;;8.33;4.67;;;8.70;69.20;;;;;;5011358;28;20190;-69
2024/03/10 07:48:39;;;;;;;6.80;5.00;;;8.80;69.10;;;;;;5011612;28;20424;-70
2024/03/10 07:51:05;;;;;;;6.50;4.37;;;8.70;68.90;;;;;;5008121;28;20476;-71
2024/03/10 07:53:31;;;;;;;9.33;5.53;;;8.70;69.10;;;;;;5008579;28;20182;-70
2024/03/10 07:55:58;;;;;;;11.13;5.90;;;8.90;69.40;;;;;;5013156;28;20189;-69
2024/03/10 07:58:26;;;;;;;8.70;5.53;;;8.90;68.60;;;;;;5016563;28;20460;-70
2024/03/10 08:00:52;;;;;;;8.07;5.10;;;8.90;67.70;;;;;;5012489;28;20548;-69
2024/03/10 08:03:18;;;;;;;9.20;5.70;;;8.90;67.70;;;;;;5014286;28;20913;-71
2024/03/10 08:05:44;;;;;;;9.53;4.80;;;8.90;67.60;;;;;;5013873;28;21217;-70
2024/03/10 08:08:10;;;;;;;5.30;4.10;;;9.00;67.70;;;;;;5013863;28;20428;-71
2024/03/10 08:10:36;;;;;;;8.00;4.60;;;9.30;67.30;;;;;;5010673;28;20593;-71
2024/03/10 08:13:01;;;;;;;6.33;4.27;;;9.50;66.40;;;;;;5007754;28;20432;-71
2024/03/10 08:15:27;;;;;;;8.00;5.07;;;9.70;66.00;;;;;;5015269;28;20209;-70
2024/03/10 08:17:53;;;;;;;6.00;4.40;;;9.80;65.60;;;;;;5011484;28;20186;-72
2024/03/10 08:20:19;;;;;;;9.50;5.17;;;9.90;65.60;;;;;;5014407;28;20271;-70
2024/03/10 08:22:45;;;;;;;7.73;4.93;;;10.00;65.60;;;;;;5012823;28;20329;-69
2024/03/10 08:25:12;;;;;;;8.23;5.50;;;10.10;65.40;;;;;;5015337;28;20436;-69
2024/03/10 08:27:38;;;;;;;10.20;4.93;;;10.20;65.40;;;;;;5015416;28;20436;-71
2024/03/10 08:30:09;;;;;;;7.17;4.50;;;10.40;64.70;;;;;;5012982;28;20417;-70
2024/03/10 08:32:35;;;;;;;9.10;5.27;;;10.50;64.40;;;;;;5010089;28;20686;-69
2024/03/10 08:35:04;;;;;;;6.67;4.20;;;10.60;64.40;;;;;;5012222;28;21000;-71
2024/03/10 08:37:30;;;;;;;7.80;4.93;;;10.40;64.10;;;;;;5012352;28;20433;-70
2024/03/10 08:39:55;;;;;;;7.77;4.97;;;10.40;64.10;;;;;;5008971;28;20842;-69
2024/03/10 08:42:24;;;;;;;7.87;4.97;;;10.30;64.40;;;;;;5009413;28;20206;-72
2024/03/10 08:44:51;;;;;;;6.93;5.13;;;10.50;63.90;;;;;;5012033;28;20186;-72
2024/03/10 08:47:17;;;;;;;6.10;4.40;;;10.60;64.10;;;;;;5013987;28;20507;-69
2024/03/10 08:49:42;;;;;;;6.23;4.20;;;10.60;64.10;;;;;;5012092;28;21133;-71
2024/03/10 08:52:08;;;;;;;7.77;5.00;;;10.80;63.80;;;;;;5007725;28;20704;-70
2024/03/10 08:54:36;;;;;;;6.60;4.10;;;10.90;63.70;;;;;;5010987;28;20182;-70
2024/03/10 08:57:04;;;;;;;6.10;4.00;;;10.90;63.20;;;;;;5011824;28;20186;-70
2024/03/10 08:59:32;;;;;;;8.23;4.37;;;11.00;62.90;;;;;;5009691;28;20527;-71
2024/03/10 09:01:58;;;;;;;7.00;3.60;;;11.20;62.30;;;;;;5011447;28;20488;-70
2024/03/10 09:04:24;;;;;;;4.50;3.37;;;11.30;62.30;;;;;;5013376;28;20429;-71
2024/03/10 09:06:50;;;;;;;5.20;3.00;;;11.50;61.90;;;;;;5010994;28;20657;-71
2024/03/10 09:09:18;;;;;;;5.00;3.67;;;11.50;61.50;;;;;;5009769;28;20297;-70
2024/03/10 09:11:45;;;;;;;6.50;3.60;;;11.20;61.50;;;;;;5007143;28;20465;-69
2024/03/10 09:14:11;;;;;;;5.00;3.40;;;11.20;62.00;;;;;;5011109;28;20444;-69
2024/03/10 09:16:36;;;;;;;5.87;3.80;;;11.40;62.50;;;;;;5010358;28;20429;-71
2024/03/10 09:19:05;;;;;;;5.67;3.73;;;11.50;62.20;;;;;;5014494;28;20475;-71
2024/03/10 09:21:33;;;;;;;5.10;3.10;;;11.40;61.60;;;;;;5008607;28;20357;-69
2024/03/10 09:24:01;;;;;;;5.50;3.60;;;11.40;61.60;;;;;;5012209;28;20424;-71
2024/03/10 09:26:28;;;;;;;5.23;3.40;;;11.60;61.20;;;;;;5002903;28;20420;-70
2024/03/10 09:28:57;;;;;;;4.80;3.20;;;11.60;60.70;;;;;;5021611;28;20419;-73
2024/03/10 09:31:23;;;;;;;6.00;3.47;;;11.40;61.00;;;;;;5018208;28;20456;-72
2024/03/10 09:33:53;;;;;;;5.07;3.43;;;11.40;61.20;;;;;;5021475;28;20427;-72
2024/03/10 09:36:18;;;;;;;5.17;2.93;;;11.40;61.00;;;;;;5019212;28;20431;-74
2024/03/10 09:38:44;;;;;;;5.07;2.80;;;11.50;60.90;;;;;;5017196;28;20560;-75
2024/03/10 09:41:12;;;;;;;3.67;2.73;;;11.50;60.70;;;;;;5015063;28;20217;-74
2024/03/10 09:43:38;;;;;;;5.03;3.57;;;11.50;60.30;;;;;;5017450;28;20432;-73
2024/03/10 09:46:10;;;;;;;4.10;2.47;;;11.70;60.30;;;;;;5018767;28;20421;-72
2024/03/10 09:48:36;;;;;;;4.00;2.43;;;12.00;59.90;;;;;;5016865;28;20479;-73
2024/03/10 09:51:02;;;;;;;9.20;3.53;;;12.10;59.60;;;;;;5011287;28;20472;-73
2024/03/10 09:53:29;;;;;;;5.13;3.53;;;12.00;59.20;;;;;;5016417;28;20280;-72
2024/03/10 09:55:55;;;;;;;6.03;3.73;;;11.80;59.70;;;;;;5017405;28;20428;-73
2024/03/10 09:58:29;;;;;;;5.73;3.30;;;11.80;60.00;;;;;;5016679;28;20431;-73
2024/03/10 10:00:55;;;;;;;5.20;2.90;;;12.00;59.70;;;;;;5013355;28;20503;-74
2024/03/10 10:03:21;;;;;;;4.33;3.17;;;11.90;60.30;;;;;;5016723;28;20440;-73
2024/03/10 10:05:53;;;;;;;6.90;3.30;;;12.10;60.30;;;;;;5016433;28;20223;-74
2024/03/10 10:08:18;;;;;;;5.00;3.23;;;12.40;59.50;;;;;;5016369;28;20506;-72
2024/03/10 10:10:51;;;;;;;5.80;3.63;;;12.30;59.50;;;;;;5013590;28;21197;-71
2024/03/10 10:13:23;;;;;;;5.50;2.90;;;12.20;59.90;;;;;;5017133;28;20443;-73
2024/03/10 10:15:50;;;;;;;4.30;2.90;;;12.00;60.60;;;;;;5016072;28;20429;-73
2024/03/10 10:18:16;;;;;;;5.83;3.00;;;12.00;60.90;;;;;;5018614;28;20436;-73
2024/03/10 10:20:51;;;;;;;3.23;2.40;;;11.80;60.90;;;;;;5013822;28;20460;-72
2024/03/10 10:23:26;;;;;;;7.70;4.07;;;11.60;61.50;;;;;;5016990;28;20181;-72
2024/03/10 10:26:09;;;;;;;5.70;3.80;;;11.80;60.70;;;;;;5017492;28;20905;-73
2024/03/10 10:28:41;;;;;;;5.37;3.30;;;12.00;60.90;;;;;;5017764;28;20804;-72
2024/03/10 10:31:14;;;;;;;4.30;3.10;;;12.30;60.40;;;;;;5015853;28;20545;-73
2024/03/10 10:33:46;;;;;;;5.00;3.23;;;12.00;60.40;;;;;;5019426;28;20428;-73
2024/03/10 10:36:13;;;;;;;6.33;3.53;;;11.90;60.70;;;;;;5015393;28;20483;-71
2024/03/10 10:38:44;;;;;;;5.17;3.63;;;12.00;61.00;;;;;;5013116;28;20868;-72
2024/03/10 10:41:10;;;;;;;5.20;3.60;;;12.10;60.70;;;;;;5009817;28;20467;-73
2024/03/10 10:43:39;;;;;;;10.83;6.50;;;12.30;61.00;;;;;;5016018;28;20428;-73
2024/03/10 10:46:06;;;;;;;5.90;3.30;;;12.30;60.60;;;;;;5013753;28;20420;-72
2024/03/10 10:48:36;;;;;;;4.90;2.83;;;12.30;60.40;;;;;;5013576;28;20437;-73
2024/03/10 10:51:03;;;;;;;6.17;3.03;;;12.50;60.60;;;;;;5010761;28;20479;-72
2024/03/10 10:53:29;;;;;;;4.73;3.30;;;12.60;59.70;;;;;;5014068;28;20515;-73
2024/03/10 10:55:58;;;;;;;4.00;3.13;;;12.70;59.70;;;;;;5014242;28;20890;-73
2024/03/10 10:58:31;;;;;;;4.87;3.30;;;13.00;59.30;;;;;;5013685;28;20432;-73
2024/03/10 11:01:04;;;;;;;5.27;3.17;;;13.20;58.90;;;;;;5010307;28;20453;-71
2024/03/10 11:03:36;;;;;;;5.07;3.10;;;13.20;58.90;;;;;;5013490;28;20413;-72
2024/03/10 11:06:01;;;;;;;4.53;3.20;;;13.30;58.50;;;;;;5018713;28;20467;-73
2024/03/10 11:08:39;;;;;;;5.80;3.63;;;13.30;58.20;;;;;;5013418;28;20453;-73
2024/03/10 11:11:05;;;;;;;4.50;3.20;;;13.40;58.20;;;;;;5008694;28;20205;-72
2024/03/10 11:13:32;;;;;;;6.40;3.93;;;13.40;58.10;;;;;;4995589;28;20940;-71
2024/03/10 11:16:09;;;;;;;5.37;3.13;;;13.50;57.80;;;;;;5013478;28;20781;-73
2024/03/10 11:18:38;;;;;;;5.03;3.10;;;13.30;58.70;;;;;;5012863;28;20472;-72
2024/03/10 11:21:06;;;;;;;5.80;3.07;;;13.00;59.50;;;;;;5008520;28;20535;-72
2024/03/10 11:23:40;;;;;;;4.30;3.30;;;12.60;60.70;;;;;;5012689;28;20876;-73
2024/03/10 11:26:25;;;;;;;5.10;3.27;;;12.40;61.50;;;;;;5012261;28;20518;-72
2024/03/10 11:28:58;;;;;;;9.17;5.30;;;12.60;61.70;;;;;;5011559;28;20452;-71
2024/03/10 11:31:23;;;;;;;6.43;3.03;;;12.50;61.50;;;;;;5008454;28;20456;-71
2024/03/10 11:34:03;;;;;;;7.13;3.63;;;12.50;61.70;;;;;;5013774;28;20447;-74
2024/03/10 11:36:38;;;;;;;4.07;3.33;;;12.40;61.60;;;;;;5013940;28;20621;-72
2024/03/10 11:39:05;;;;;;;6.07;2.97;;;12.40;61.60;;;;;;5008841;28;20530;-73
2024/03/10 11:41:31;;;;;;;11.90;3.60;;;12.30;62.20;;;;;;5014138;28;20472;-73
2024/03/10 11:43:58;;;;;;;6.10;2.90;;;12.30;62.20;;;;;;5006973;28;20460;-72
2024/03/10 11:46:26;;;;;;;6.77;3.20;;;12.30;61.90;;;;;;5013308;28;20515;-74
2024/03/10 11:48:54;;;;;;;5.13;3.10;;;12.40;62.20;;;;;;5011535;28;20429;-71
2024/03/10 11:51:33;;;;;;;4.87;3.43;;;12.50;61.70;;;;;;5004952;28;20481;-70
2024/03/10 11:54:00;;;;;;;4.53;3.00;;;12.70;61.60;;;;;;5010015;28;20416;-69
2024/03/10 11:56:26;;;;;;;4.00;3.07;;;13.00;61.20;;;;;;5014465;28;20508;-70
2024/03/10 11:58:52;;;;;;;4.80;2.80;;;13.10;60.30;;;;;;5013044;28;20544;-70
2024/03/10 12:01:19;;;;;;;4.13;3.10;;;13.10;59.90;;;;;;5010638;28;20698;-72
2024/03/10 12:03:47;;;;;;;6.57;3.33;;;13.10;60.30;;;;;;5012147;28;20429;-71
2024/03/10 12:06:15;;;;;;;4.30;3.30;;;13.30;60.10;;;;;;4998231;28;20421;-69
2024/03/10 12:08:44;;;;;;;6.47;3.50;;;13.30;59.60;;;;;;5010199;28;20439;-70
2024/03/10 12:11:11;;;;;;;4.93;3.50;;;13.00;60.00;;;;;;5005893;28;20902;-71
2024/03/10 12:13:44;;;;;;;4.97;3.37;;;12.70;61.30;;;;;;5010993;28;21182;-71
2024/03/10 12:16:11;;;;;;;5.87;3.67;;;12.80;61.50;;;;;;5014904;28;20523;-69
2024/03/10 12:18:38;;;;;;;4.90;3.07;;;13.00;61.00;;;;;;5012194;28;20457;-68
2024/03/10 12:21:04;;;;;;;5.03;2.87;;;13.00;61.20;;;;;;5010507;28;20894;-69
2024/03/10 12:23:36;;;;;;;4.43;2.80;;;13.40;60.10;;;;;;5011688;28;20480;-71
2024/03/10 12:26:09;;;;;;;8.83;3.30;;;13.40;59.60;;;;;;5007234;28;20420;-70
2024/03/10 12:28:35;;;;;;;6.17;3.27;;;13.00;60.60;;;;;;5010399;28;20475;-71
2024/03/10 12:31:01;;;;;;;6.27;3.60;;;13.00;60.90;;;;;;5007210;28;20477;-71
2024/03/10 12:33:27;;;;;;;5.03;3.47;;;13.20;60.90;;;;;;5010537;28;20495;-70
2024/03/10 12:35:53;;;;;;;5.43;3.40;;;13.30;60.30;;;;;;5010697;28;20186;-70
2024/03/10 12:38:19;;;;;;;7.00;3.90;;;13.20;60.00;;;;;;5010015;28;20436;-71
2024/03/10 12:40:44;;;;;;;4.30;2.80;;;13.30;60.10;;;;;;5009737;28;20206;-70
2024/03/10 12:43:11;;;;;;;5.70;2.90;;;13.20;60.00;;;;;;5009987;28;20421;-70
2024/03/10 12:45:38;;;;;;;4.07;2.87;;;13.10;59.90;;;;;;5010556;28;20194;-71
2024/03/10 12:48:05;;;;;;;6.47;3.57;;;13.00;60.10;;;;;;5009952;28;20444;-68
2024/03/10 12:50:32;;;;;;;6.50;3.23;;;13.10;60.10;;;;;;5007618;28;20453;-69
2024/03/10 12:52:59;;;;;;;6.17;3.30;;;13.10;59.90;;;;;;5010383;28;20425;-70
2024/03/10 12:55:24;;;;;;;4.40;3.20;;;13.10;60.40;;;;;;5011086;28;20432;-71
2024/03/10 12:57:50;;;;;;;5.30;2.90;;;13.30;60.00;;;;;;5012127;28;20424;-70
2024/03/10 13:00:22;;;;;;;5.00;2.93;;;13.60;59.70;;;;;;5009091;28;20228;-70
2024/03/10 13:02:51;;;;;;;5.43;3.40;;;13.70;59.10;;;;;;5013752;28;20709;-70
2024/03/10 13:05:18;;;;;;;4.37;3.00;;;13.80;58.20;;;;;;5009897;28;20965;-70
2024/03/10 13:07:43;;;;;;;4.60;3.40;;;13.60;58.90;;;;;;5010808;28;20427;-69
2024/03/10 13:10:10;;;;;;;8.77;3.03;;;13.40;59.60;;;;;;5010404;28;20929;-70
2024/03/10 13:12:37;;;;;;;5.50;3.40;;;13.20;60.00;;;;;;5008073;28;20204;-70
2024/03/10 13:15:05;;;;;;;4.90;3.50;;;13.20;60.40;;;;;;5010305;28;20441;-71